Time;durP1;ratioP1;P1;durP2;ratioP2;P2;SDS_P1;SDS_P2;PMS_P1;PMS_P2;Temp;Humidity;BMP_temperature;BMP_pressure;BME280_temperature;BME280_humidity;BME280_pressure;Samples;Min_cycle;Max_cycle;Signal;HPM_P1;HPM_P2
2022/11/20 00:00:42;;;;;;;;;;;-0.80;99.90;;;;;;5153594;27;19999;-39
2022/11/20 00:03:08;;;;;;;;;;;-0.80;99.90;;;;;;5154731;27;19907;-38
2022/11/20 00:05:33;;;;;;;;;;;-0.70;99.90;;;;;;5154423;27;20439;-39
2022/11/20 00:07:58;;;;;;;;;;;-0.70;99.90;;;;;;5153913;27;19911;-41
2022/11/20 00:10:24;;;;;;;;;;;-0.60;99.90;;;;;;5154657;27;19907;-39
2022/11/20 00:12:49;;;;;;;;;;;-0.60;99.90;;;;;;5154418;27;20018;-39
2022/11/20 00:15:15;;;;;;;;;;;-0.60;99.90;;;;;;5153472;27;20281;-39
2022/11/20 00:17:40;;;;;;;;;;;-0.60;99.90;;;;;;5154582;27;19914;-39
2022/11/20 00:20:06;;;;;;;;;;;-0.50;99.90;;;;;;5152965;27;20231;-39
2022/11/20 00:22:31;;;;;;;;;;;-0.50;99.90;;;;;;5152954;27;19911;-39
2022/11/20 00:24:57;;;;;;;;;;;-0.40;99.90;;;;;;5153936;27;19918;-38
2022/11/20 00:27:23;;;;;;;;;;;-0.40;99.90;;;;;;5154442;27;20356;-39
2022/11/20 00:29:48;;;;;;;;;;;-0.40;99.90;;;;;;5153603;27;19921;-39
2022/11/20 00:32:14;;;;;;;;;;;-0.30;99.90;;;;;;5154164;27;19914;-39
2022/11/20 00:34:39;;;;;;;;;;;-0.30;99.90;;;;;;5153629;27;19914;-39
2022/11/20 00:37:05;;;;;;;;;;;-0.30;99.90;;;;;;5154252;27;19933;-40
2022/11/20 00:39:30;;;;;;;;;;;-0.30;99.90;;;;;;5154024;27;19958;-39
2022/11/20 00:41:55;;;;;;;;;;;-0.30;99.90;;;;;;5153265;27;19907;-40
2022/11/20 00:44:21;;;;;;;;;;;-0.30;99.90;;;;;;5154211;27;19911;-40
2022/11/20 00:46:46;;;;;;;;;;;-0.30;99.90;;;;;;5153969;27;20358;-38
2022/11/20 00:49:12;;;;;;;;;;;-0.20;99.90;;;;;;5153345;27;19946;-38
2022/11/20 00:51:37;;;;;;;;;;;-0.20;99.90;;;;;;5154086;27;19911;-40
2022/11/20 00:54:03;;;;;;;;;;;-0.20;99.90;;;;;;5154106;27;19914;-38
2022/11/20 00:56:28;;;;;;;;;;;-0.20;99.90;;;;;;5153291;27;20342;-39
2022/11/20 00:58:54;;;;;;;;;;;-0.10;99.90;;;;;;5153507;27;19911;-38
2022/11/20 01:01:20;;;;;;;;;;;-0.20;99.90;;;;;;5153863;27;19911;-38
2022/11/20 01:03:47;;;;;;;;;;;-0.20;99.90;;;;;;5153185;27;20386;-39
2022/11/20 01:06:16;;;;;;;;;;;-0.10;99.90;;;;;;5153853;27;19949;-39
2022/11/20 01:08:41;;;;;;;;;;;-0.10;99.90;;;;;;5153802;27;19915;-40
2022/11/20 01:11:09;;;;;;;;;;;-0.10;99.90;;;;;;5152981;27;20403;-39
2022/11/20 01:13:37;;;;;;;;;;;-0.10;99.90;;;;;;5156167;27;19921;-39
2022/11/20 01:16:03;;;;;;;;;;;0.00;99.90;;;;;;5157756;27;19911;-38
2022/11/20 01:18:28;;;;;;;;;;;-0.10;99.90;;;;;;5156671;27;19918;-39
2022/11/20 01:20:54;;;;;;;;;;;0.00;99.90;;;;;;5157851;27;19914;-39
2022/11/20 01:23:19;;;;;;;;;;;0.00;99.90;;;;;;5157933;27;19947;-39
2022/11/20 01:25:45;;;;;;;;;;;0.00;99.90;;;;;;5156792;27;20342;-38
2022/11/20 01:28:10;;;;;;;;;;;0.00;99.90;;;;;;5157501;27;19915;-39
2022/11/20 01:30:36;;;;;;;;;;;0.10;99.90;;;;;;5157695;27;19984;-39
2022/11/20 01:33:01;;;;;;;;;;;0.10;99.90;;;;;;5157062;27;19907;-40
2022/11/20 01:35:27;;;;;;;;;;;0.10;99.90;;;;;;5157522;27;20015;-40
2022/11/20 01:37:52;;;;;;;;;;;0.10;99.90;;;;;;5155986;27;20337;-38
2022/11/20 01:40:17;;;;;;;;;;;0.10;99.90;;;;;;5157519;27;19907;-40
2022/11/20 01:45:45;;;;;;;;;;;0.10;99.90;;;;;;5156924;27;19914;-40
2022/11/20 01:48:11;;;;;;;;;;;0.10;99.90;;;;;;5156839;27;19919;-39
2022/11/20 01:50:36;;;;;;;;;;;0.20;99.90;;;;;;5157356;27;19947;-39
2022/11/20 01:53:04;;;;;;;;;;;0.20;99.90;;;;;;5156541;27;19907;-39
2022/11/20 01:55:33;;;;;;;;;;;0.20;99.90;;;;;;5156169;27;20141;-38
2022/11/20 01:57:59;;;;;;;;;;;0.20;99.90;;;;;;5157101;27;19979;-38
2022/11/20 02:00:25;;;;;;;;;;;0.20;99.90;;;;;;5156608;27;19907;-39
2022/11/20 02:02:58;;;;;;;;;;;0.20;99.90;;;;;;5157245;27;19989;-40
2022/11/20 02:05:26;;;;;;;;;;;0.20;99.90;;;;;;5157212;27;19966;-38
2022/11/20 02:07:53;;;;;;;;;;;0.30;99.90;;;;;;5155349;27;19919;-39
2022/11/20 02:10:18;;;;;;;;;;;0.20;99.90;;;;;;5156852;27;19911;-40
2022/11/20 02:15:28;;;;;;;;;;;0.30;99.90;;;;;;5156978;27;20346;-39
2022/11/20 02:17:53;;;;;;;;;;;0.30;99.90;;;;;;5156703;27;19954;-39
2022/11/20 02:20:19;;;;;;;;;;;0.30;99.90;;;;;;5155960;27;19911;-38
2022/11/20 02:22:50;;;;;;;;;;;0.30;99.90;;;;;;5156687;27;19993;-38
2022/11/20 02:25:16;;;;;;;;;;;0.30;99.90;;;;;;5137885;27;19914;-39
2022/11/20 02:27:42;;;;;;;;;;;0.40;99.90;;;;;;5155767;27;19911;-38
2022/11/20 02:30:07;;;;;;;;;;;0.40;99.90;;;;;;5156418;27;19911;-40
2022/11/20 02:32:34;;;;;;;;;;;0.30;99.90;;;;;;5156596;27;19907;-38
2022/11/20 02:35:10;;;;;;;;;;;0.30;99.90;;;;;;5155708;27;19917;-38
2022/11/20 02:37:36;;;;;;;;;;;0.40;99.90;;;;;;5156029;27;19967;-38
2022/11/20 02:40:02;;;;;;;;;;;0.40;99.90;;;;;;5156217;27;19997;-39
2022/11/20 02:42:28;;;;;;;;;;;0.40;99.90;;;;;;5155469;27;20040;-39
2022/11/20 02:44:53;;;;;;;;;;;0.40;99.90;;;;;;5155962;27;20373;-39
2022/11/20 02:47:18;;;;;;;;;;;0.40;99.90;;;;;;5155502;27;19919;-38
2022/11/20 02:49:44;;;;;;;;;;;0.40;99.90;;;;;;5155359;27;19930;-39
2022/11/20 02:52:09;;;;;;;;;;;0.50;99.90;;;;;;5156105;27;20277;-38
2022/11/20 02:54:35;;;;;;;;;;;0.40;99.90;;;;;;5156043;27;19919;-40
2022/11/20 02:57:00;;;;;;;;;;;0.50;99.90;;;;;;5155135;27;20361;-39
2022/11/20 02:59:26;;;;;;;;;;;0.50;99.90;;;;;;5155832;27;19942;-38
2022/11/20 03:01:51;;;;;;;;;;;0.50;99.90;;;;;;5155775;27;20384;-39
2022/11/20 03:04:17;;;;;;;;;;;0.50;99.90;;;;;;5154912;27;19907;-38
2022/11/20 03:06:42;;;;;;;;;;;0.40;99.90;;;;;;5155874;27;19907;-38
2022/11/20 03:09:08;;;;;;;;;;;0.40;99.90;;;;;;5154648;27;19919;-39
2022/11/20 03:11:33;;;;;;;;;;;0.40;99.90;;;;;;5155008;27;19911;-40
2022/11/20 03:14:01;;;;;;;;;;;0.40;99.90;;;;;;5155406;27;20387;-39
2022/11/20 03:16:27;;;;;;;;;;;0.40;99.90;;;;;;5154801;27;19907;-39
2022/11/20 03:18:52;;;;;;;;;;;0.40;99.90;;;;;;5155588;27;19907;-40
2022/11/20 03:21:18;;;;;;;;;;;0.50;99.90;;;;;;5155200;27;19959;-40
2022/11/20 03:23:43;;;;;;;;;;;0.50;99.90;;;;;;5154551;27;19907;-39
2022/11/20 03:26:09;;;;;;;;;;;0.50;99.90;;;;;;5155275;27;19998;-41
2022/11/20 03:28:34;;;;;;;;;;;0.50;99.90;;;;;;5155457;27;19969;-39
2022/11/20 03:31:04;;;;;;;;;;;0.50;99.90;;;;;;5154419;27;19952;-39
2022/11/20 03:33:30;;;;;;;;;;;0.50;99.90;;;;;;5155363;27;19907;-39
2022/11/20 03:36:00;;;;;;;;;;;0.50;99.90;;;;;;5154478;27;19921;-38
2022/11/20 03:38:28;;;;;;;;;;;0.50;99.90;;;;;;5154197;27;19907;-39
2022/11/20 03:40:57;;;;;;;;;;;0.60;99.90;;;;;;5155098;27;19918;-40
2022/11/20 03:43:22;;;;;;;;;;;0.60;99.90;;;;;;5155203;27;20002;-38
2022/11/20 03:45:48;;;;;;;;;;;0.60;99.90;;;;;;5154247;27;20740;-39
2022/11/20 03:48:13;;;;;;;;;;;0.60;99.90;;;;;;5154404;27;19919;-38
2022/11/20 03:50:39;;;;;;;;;;;0.60;99.90;;;;;;5154848;27;19911;-39
2022/11/20 03:53:05;;;;;;;;;;;0.60;99.90;;;;;;5154197;27;20315;-39
2022/11/20 03:55:30;;;;;;;;;;;0.70;99.90;;;;;;5154968;27;19911;-40
2022/11/20 03:57:55;;;;;;;;;;;0.60;99.90;;;;;;5154565;27;19911;-39
2022/11/20 04:00:21;;;;;;;;;;;0.60;99.90;;;;;;5153744;27;19962;-38
2022/11/20 04:02:46;;;;;;;;;;;0.70;99.90;;;;;;5154148;27;20374;-40
2022/11/20 04:05:12;;;;;;;;;;;0.70;99.90;;;;;;5135837;27;19942;-40
2022/11/20 04:07:37;;;;;;;;;;;0.60;99.90;;;;;;5153918;27;19919;-38
2022/11/20 04:10:03;;;;;;;;;;;0.60;99.90;;;;;;5154397;27;19914;-40
2022/11/20 04:12:31;;;;;;;;;;;0.60;99.90;;;;;;5154615;27;19911;-40
2022/11/20 04:14:57;;;;;;;;;;;0.70;99.90;;;;;;5154417;27;19915;-39
2022/11/20 04:17:22;;;;;;;;;;;0.70;99.90;;;;;;5154650;27;20304;-39
2022/11/20 04:19:47;;;;;;;;;;;0.70;99.90;;;;;;5153471;27;19915;-40
2022/11/20 04:22:13;;;;;;;;;;;0.70;99.90;;;;;;5154485;27;19911;-40
2022/11/20 04:24:38;;;;;;;;;;;0.70;99.90;;;;;;5154612;27;19947;-38
2022/11/20 04:27:04;;;;;;;;;;;0.80;99.90;;;;;;5135011;27;19934;-39
2022/11/20 04:29:29;;;;;;;;;;;0.70;99.90;;;;;;5154068;27;19922;-39
2022/11/20 04:31:55;;;;;;;;;;;0.70;99.90;;;;;;5154417;27;20005;-40
2022/11/20 04:34:20;;;;;;;;;;;0.70;99.90;;;;;;5153273;27;19915;-40
2022/11/20 04:36:46;;;;;;;;;;;0.80;99.90;;;;;;5154241;27;20357;-40
2022/11/20 04:39:12;;;;;;;;;;;0.80;99.90;;;;;;5154138;27;19907;-38
2022/11/20 04:41:38;;;;;;;;;;;0.80;99.90;;;;;;5153302;27;20354;-38
2022/11/20 04:44:05;;;;;;;;;;;0.80;99.90;;;;;;5154237;27;19907;-39
2022/11/20 04:46:37;;;;;;;;;;;0.70;99.90;;;;;;5153795;27;19907;-39
2022/11/20 04:49:03;;;;;;;;;;;0.80;99.90;;;;;;5157654;27;19915;-39
2022/11/20 04:51:29;;;;;;;;;;;0.70;99.90;;;;;;5158487;27;19933;-40
2022/11/20 04:53:54;;;;;;;;;;;0.70;99.90;;;;;;5157987;27;19911;-38
2022/11/20 04:56:20;;;;;;;;;;;0.70;99.90;;;;;;5157356;27;19914;-39
2022/11/20 04:58:45;;;;;;;;;;;0.70;99.90;;;;;;5158333;27;20065;-40
2022/11/20 05:01:19;;;;;;;;;;;0.70;99.90;;;;;;5158321;27;19914;-40
2022/11/20 05:03:45;;;;;;;;;;;0.70;99.90;;;;;;5157306;27;19951;-40
2022/11/20 05:06:11;;;;;;;;;;;0.70;99.90;;;;;;5158105;27;19911;-38
2022/11/20 05:08:37;;;;;;;;;;;0.70;99.90;;;;;;5158064;27;19915;-38
2022/11/20 05:11:03;;;;;;;;;;;0.70;99.90;;;;;;5157521;27;19914;-39
2022/11/20 05:13:28;;;;;;;;;;;0.70;99.90;;;;;;5157904;27;19907;-39
2022/11/20 05:15:54;;;;;;;;;;;0.70;99.90;;;;;;5157407;27;19907;-39
2022/11/20 05:18:19;;;;;;;;;;;0.70;99.90;;;;;;5157952;27;19911;-38
2022/11/20 05:20:45;;;;;;;;;;;0.70;99.90;;;;;;5157930;27;20370;-40
2022/11/20 05:23:10;;;;;;;;;;;0.70;99.90;;;;;;5156508;27;19915;-38
2022/11/20 05:25:36;;;;;;;;;;;0.70;99.90;;;;;;5157812;27;19914;-39
2022/11/20 05:28:01;;;;;;;;;;;0.70;99.90;;;;;;5157727;27;19921;-38
2022/11/20 05:30:27;;;;;;;;;;;0.70;99.90;;;;;;5156528;27;19915;-39
2022/11/20 05:32:52;;;;;;;;;;;0.70;99.90;;;;;;5157550;27;19922;-39
2022/11/20 05:35:17;;;;;;;;;;;0.70;99.90;;;;;;5157735;27;19911;-40
2022/11/20 05:37:43;;;;;;;;;;;0.70;99.90;;;;;;5156908;27;20006;-40
2022/11/20 05:40:09;;;;;;;;;;;0.80;99.90;;;;;;5157293;27;19911;-38
2022/11/20 05:42:35;;;;;;;;;;;0.80;99.90;;;;;;5157390;27;20507;-40
2022/11/20 05:45:02;;;;;;;;;;;0.80;99.90;;;;;;5156523;27;19914;-39
2022/11/20 05:47:28;;;;;;;;;;;0.80;99.90;;;;;;5156731;27;19919;-40
2022/11/20 05:49:53;;;;;;;;;;;0.80;99.90;;;;;;5157256;27;19915;-40
2022/11/20 05:52:19;;;;;;;;;;;0.80;99.90;;;;;;5156170;27;20067;-39
2022/11/20 05:54:44;;;;;;;;;;;0.80;99.90;;;;;;5157207;27;20441;-39
2022/11/20 05:57:10;;;;;;;;;;;0.80;99.90;;;;;;5157010;27;20575;-40
2022/11/20 05:59:35;;;;;;;;;;;0.80;99.90;;;;;;5155538;27;19932;-40
2022/11/20 06:02:01;;;;;;;;;;;0.80;99.90;;;;;;5156924;27;19989;-38
2022/11/20 06:04:26;;;;;;;;;;;0.90;99.90;;;;;;5157101;27;19911;-39
2022/11/20 06:06:52;;;;;;;;;;;0.90;99.90;;;;;;5155899;27;19929;-39
2022/11/20 06:09:17;;;;;;;;;;;0.90;99.90;;;;;;5156836;27;19915;-39
2022/11/20 06:11:43;;;;;;;;;;;0.80;99.90;;;;;;5156967;27;19914;-40
2022/11/20 06:14:08;;;;;;;;;;;0.80;99.90;;;;;;5155851;27;20332;-40
2022/11/20 06:16:33;;;;;;;;;;;0.70;99.90;;;;;;5156919;27;19911;-39
2022/11/20 06:18:59;;;;;;;;;;;0.70;99.90;;;;;;5156622;27;19956;-40
2022/11/20 06:21:24;;;;;;;;;;;0.70;99.90;;;;;;5156081;27;19914;-39
2022/11/20 06:23:50;;;;;;;;;;;0.70;99.90;;;;;;5155712;27;20380;-39
2022/11/20 06:26:19;;;;;;;;;;;0.70;99.90;;;;;;5156118;27;19953;-39
2022/11/20 06:28:45;;;;;;;;;;;0.70;99.90;;;;;;5156493;27;19915;-40
2022/11/20 06:31:13;;;;;;;;;;;0.70;99.90;;;;;;5156574;27;20444;-40
2022/11/20 06:33:39;;;;;;;;;;;0.80;99.90;;;;;;5155425;27;19915;-39
2022/11/20 06:36:04;;;;;;;;;;;0.80;99.90;;;;;;5156438;27;19911;-38
2022/11/20 06:38:30;;;;;;;;;;;0.80;99.90;;;;;;5156293;27;20365;-40
2022/11/20 06:40:55;;;;;;;;;;;0.80;99.90;;;;;;5155533;27;19912;-39
2022/11/20 06:43:21;;;;;;;;;;;0.80;99.90;;;;;;5156097;27;19907;-40
2022/11/20 06:45:51;;;;;;;;;;;0.80;99.90;;;;;;5156251;27;19914;-40
2022/11/20 06:48:16;;;;;;;;;;;0.80;99.90;;;;;;5155103;27;20450;-39
2022/11/20 06:50:42;;;;;;;;;;;0.80;99.90;;;;;;5156152;27;19911;-38
2022/11/20 06:53:07;;;;;;;;;;;0.70;99.90;;;;;;5155196;27;20366;-40
2022/11/20 06:55:33;;;;;;;;;;;0.70;99.90;;;;;;5155353;27;20285;-39
2022/11/20 06:57:58;;;;;;;;;;;0.70;99.90;;;;;;5155937;27;19918;-39
2022/11/20 07:00:24;;;;;;;;;;;0.70;99.90;;;;;;5155811;27;19907;-40
2022/11/20 07:02:49;;;;;;;;;;;0.70;99.90;;;;;;5155180;27;19915;-39
2022/11/20 07:05:15;;;;;;;;;;;0.70;99.90;;;;;;5155936;27;20384;-40
2022/11/20 07:07:41;;;;;;;;;;;0.70;99.90;;;;;;5155731;27;19965;-40
2022/11/20 07:10:06;;;;;;;;;;;0.80;99.90;;;;;;5154027;27;19911;-38
2022/11/20 07:12:32;;;;;;;;;;;0.80;99.90;;;;;;5155425;27;19976;-38
2022/11/20 07:14:57;;;;;;;;;;;0.80;99.90;;;;;;5155683;27;20349;-38
2022/11/20 07:17:23;;;;;;;;;;;0.80;99.90;;;;;;5154866;27;19911;-40
2022/11/20 07:19:48;;;;;;;;;;;0.80;99.90;;;;;;5155422;27;19907;-40
2022/11/20 07:22:14;;;;;;;;;;;0.90;99.90;;;;;;5155270;27;19908;-39
2022/11/20 07:24:39;;;;;;;;;;;0.90;99.90;;;;;;5154653;27;19957;-38
2022/11/20 07:27:04;;;;;;;;;;;0.90;99.90;;;;;;5155348;27;19918;-39
2022/11/20 07:29:30;;;;;;;;;;;0.90;99.90;;;;;;5153544;27;19971;-38
2022/11/20 07:31:56;;;;;;;;;;;1.00;99.90;;;;;;5154029;27;19918;-39
2022/11/20 07:34:22;;;;;;;;;;;1.00;99.90;;;;;;5154826;27;19907;-38
2022/11/20 07:36:47;;;;;;;;;;;1.00;99.90;;;;;;5153865;27;20353;-38
2022/11/20 07:39:12;;;;;;;;;;;0.90;99.90;;;;;;5154295;27;20294;-39
2022/11/20 07:41:38;;;;;;;;;;;1.00;99.90;;;;;;5153877;27;19964;-38
2022/11/20 07:44:04;;;;;;;;;;;1.00;99.90;;;;;;5154153;27;19907;-40
2022/11/20 07:46:29;;;;;;;;;;;1.00;99.90;;;;;;5154724;27;20202;-40
2022/11/20 07:48:55;;;;;;;;;;;1.00;99.90;;;;;;5154562;27;19919;-40
2022/11/20 07:51:20;;;;;;;;;;;1.00;99.90;;;;;;5153882;27;19914;-39
2022/11/20 07:53:45;;;;;;;;;;;1.00;99.90;;;;;;5154717;27;19915;-40
2022/11/20 07:56:11;;;;;;;;;;;1.00;99.90;;;;;;5154492;27;20452;-40
2022/11/20 07:58:36;;;;;;;;;;;1.00;99.90;;;;;;5153943;27;20012;-39
2022/11/20 08:01:05;;;;;;;;;;;1.00;99.90;;;;;;5154833;27;20407;-38
2022/11/20 08:03:31;;;;;;;;;;;1.00;99.90;;;;;;5154754;27;20381;-40
2022/11/20 08:06:03;;;;;;;;;;;1.00;99.90;;;;;;5153783;27;19971;-38
2022/11/20 08:08:29;;;;;;;;;;;1.10;99.90;;;;;;5154625;27;19915;-40
2022/11/20 08:14:11;;;;;;;;;;;1.10;99.90;;;;;;5154625;27;19914;-40
2022/11/20 08:16:25;;;;;;;;;;;1.20;99.90;;;;;;5154903;27;19982;-39
2022/11/20 08:18:51;;;;;;;;;;;1.20;99.90;;;;;;5153715;27;19911;-41
2022/11/20 08:21:16;;;;;;;;;;;1.30;99.90;;;;;;5154280;27;20365;-38
2022/11/20 08:23:42;;;;;;;;;;;1.30;99.90;;;;;;5154492;27;19959;-39
2022/11/20 08:26:07;;;;;;;;;;;1.40;99.90;;;;;;5153661;27;19915;-39
2022/11/20 08:28:32;;;;;;;;;;;1.40;99.90;;;;;;5154329;27;19915;-39
2022/11/20 08:30:59;;;;;;;;;;;1.40;99.90;;;;;;5154393;27;20068;-40
2022/11/20 08:33:24;;;;;;;;;;;1.40;99.90;;;;;;5153606;27;19962;-39
2022/11/20 08:35:50;;;;;;;;;;;1.40;99.90;;;;;;5154163;27;19930;-39
2022/11/20 08:38:15;;;;;;;;;;;1.40;99.90;;;;;;5154389;27;19960;-39
2022/11/20 08:40:41;;;;;;;;;;;1.40;99.90;;;;;;5153504;27;20335;-39
2022/11/20 08:43:06;;;;;;;;;;;1.40;99.90;;;;;;5154165;27;19918;-40
2022/11/20 08:45:32;;;;;;;;;;;1.40;99.90;;;;;;5154317;27;20299;-40
2022/11/20 08:48:01;;;;;;;;;;;1.40;99.90;;;;;;5152893;27;19919;-40
2022/11/20 08:50:26;;;;;;;;;;;1.40;99.90;;;;;;5154255;27;19907;-40
2022/11/20 08:52:52;;;;;;;;;;;1.40;99.90;;;;;;5154053;27;19907;-40
2022/11/20 08:55:17;;;;;;;;;;;1.40;99.90;;;;;;5153376;27;19907;-39
2022/11/20 08:57:43;;;;;;;;;;;1.40;99.90;;;;;;5153882;27;19949;-40
2022/11/20 09:00:10;;;;;;;;;;;1.50;99.90;;;;;;5154033;27;20401;-40
2022/11/20 09:02:36;;;;;;;;;;;1.50;99.90;;;;;;5153193;27;20307;-39
2022/11/20 09:05:02;;;;;;;;;;;1.50;99.90;;;;;;5154067;27;20032;-40
2022/11/20 09:07:28;;;;;;;;;;;1.50;99.90;;;;;;5153841;27;19915;-39
2022/11/20 09:09:53;;;;;;;;;;;1.50;99.90;;;;;;5152951;27;20012;-38
2022/11/20 09:12:19;;;;;;;;;;;1.50;99.90;;;;;;5154116;27;19964;-40
2022/11/20 09:14:44;;;;;;;;;;;1.60;99.90;;;;;;5153846;27;19945;-39
2022/11/20 09:17:13;;;;;;;;;;;1.60;99.90;;;;;;5153148;27;19907;-39
2022/11/20 09:19:38;;;;;;;;;;;1.60;99.90;;;;;;5153919;27;19914;-39
2022/11/20 09:22:04;;;;;;;;;;;1.70;99.90;;;;;;5152844;27;20440;-38
2022/11/20 09:24:29;;;;;;;;;;;1.80;99.90;;;;;;5153659;27;19912;-40
2022/11/20 09:26:55;;;;;;;;;;;1.80;99.90;;;;;;5153836;27;19911;-41
2022/11/20 09:29:20;;;;;;;;;;;1.90;99.90;;;;;;5152751;27;19923;-39
2022/11/20 09:31:46;;;;;;;;;;;1.90;99.90;;;;;;5153847;27;20278;-39
2022/11/20 09:34:11;;;;;;;;;;;2.00;99.90;;;;;;5155133;27;19951;-38
2022/11/20 09:36:37;;;;;;;;;;;2.00;99.90;;;;;;5156786;27;19919;-39
2022/11/20 09:39:02;;;;;;;;;;;2.10;99.90;;;;;;5157471;27;20315;-40
2022/11/20 09:41:37;;;;;;;;;;;2.20;99.90;;;;;;5156852;27;19911;-39
2022/11/20 09:44:14;;;;;;;;;;;2.20;99.90;;;;;;5156404;27;20315;-40
2022/11/20 09:46:45;;;;;;;;;;;2.20;99.90;;;;;;5138454;27;19998;-39
2022/11/20 09:49:19;;;;;;;;;;;2.20;99.90;;;;;;5157347;27;19938;-38
2022/11/20 09:51:51;;;;;;;;;;;2.20;99.90;;;;;;5156208;27;19911;-40
2022/11/20 09:54:17;;;;;;;;;;;2.20;99.90;;;;;;5156694;27;19922;-40
2022/11/20 09:56:44;;;;;;;;;;;2.20;99.90;;;;;;5157279;27;19907;-40
2022/11/20 09:59:28;;;;;;;;;;;2.20;99.90;;;;;;5156441;27;20353;-40
2022/11/20 10:01:55;;;;;;;;;;;2.20;99.90;;;;;;5157079;27;19989;-39
2022/11/20 10:04:20;;;;;;;;;;;2.20;99.90;;;;;;5156686;27;19907;-39
2022/11/20 10:06:56;;;;;;;;;;;2.30;99.90;;;;;;5156875;27;19930;-40
2022/11/20 10:09:27;;;;;;;;;;;2.40;99.90;;;;;;5156996;27;19916;-40
2022/11/20 10:12:12;;;;;;;;;;;2.50;99.90;;;;;;5156115;27;19907;-39
2022/11/20 10:14:41;;;;;;;;;;;2.60;99.90;;;;;;5156302;27;19911;-38
2022/11/20 10:17:13;;;;;;;;;;;2.60;99.90;;;;;;5157091;27;19907;-39
2022/11/20 10:19:45;;;;;;;;;;;2.70;99.90;;;;;;5153693;27;20134;-38
2022/11/20 10:22:19;;;;;;;;;;;2.70;99.90;;;;;;5155330;27;20014;-39
2022/11/20 10:25:04;;;;;;;;;;;2.80;99.90;;;;;;5156640;27;19915;-39
2022/11/20 10:27:44;;;;;;;;;;;2.80;99.90;;;;;;5155268;27;20362;-41
2022/11/20 10:30:10;;;;;;;;;;;2.90;99.90;;;;;;5155382;27;19919;-40
2022/11/20 10:32:50;;;;;;;;;;;3.10;99.90;;;;;;5156412;27;19918;-41
2022/11/20 10:35:22;;;;;;;;;;;3.10;99.90;;;;;;5157069;27;19907;-39
2022/11/20 10:37:51;;;;;;;;;;;3.20;99.90;;;;;;5143194;27;20013;-39
2022/11/20 10:40:19;;;;;;;;;;;3.20;99.90;;;;;;5153915;27;19911;-39
2022/11/20 10:42:55;;;;;;;;;;;3.20;99.90;;;;;;5154869;27;19912;-38
2022/11/20 10:45:24;;;;;;;;;;;3.20;99.90;;;;;;5156227;27;19946;-40
2022/11/20 10:47:50;;;;;;;;;;;3.30;99.90;;;;;;5155101;27;19919;-40
2022/11/20 10:50:19;;;;;;;;;;;3.30;99.90;;;;;;5155859;27;19907;-41
2022/11/20 10:52:55;;;;;;;;;;;3.40;99.90;;;;;;5155452;27;19915;-39
2022/11/20 10:55:38;;;;;;;;;;;3.50;99.90;;;;;;5154189;27;19907;-40
2022/11/20 10:58:13;;;;;;;;;;;3.50;99.90;;;;;;5153988;27;19911;-41
2022/11/20 11:00:38;;;;;;;;;;;3.60;99.90;;;;;;5153126;27;19953;-41
2022/11/20 11:03:11;;;;;;;;;;;3.60;99.90;;;;;;5153313;27;19911;-41
2022/11/20 11:05:40;;;;;;;;;;;3.60;99.90;;;;;;5150977;27;19919;-40
2022/11/20 11:08:14;;;;;;;;;;;3.60;99.90;;;;;;5152474;27;19919;-40
2022/11/20 11:10:59;;;;;;;;;;;3.60;99.90;;;;;;5150888;27;20352;-40
2022/11/20 11:13:26;;;;;;;;;;;3.50;99.90;;;;;;5151674;27;20263;-40
2022/11/20 11:15:52;;;;;;;;;;;3.50;99.90;;;;;;5153232;27;19998;-41
2022/11/20 11:18:28;;;;;;;;;;;3.50;99.90;;;;;;5154220;27;20073;-39
2022/11/20 11:20:54;;;;;;;;;;;3.50;99.90;;;;;;5154086;27;19915;-40
2022/11/20 11:23:37;;;;;;;;;;;3.50;99.90;;;;;;5153515;27;19911;-40
2022/11/20 11:26:04;;;;;;;;;;;3.50;99.90;;;;;;5151889;27;19911;-39
2022/11/20 11:28:30;;;;;;;;;;;3.60;99.90;;;;;;5154593;27;19940;-41
2022/11/20 11:30:56;;;;;;;;;;;3.60;99.90;;;;;;5154078;27;19911;-41
2022/11/20 11:33:22;;;;;;;;;;;3.70;99.90;;;;;;5154641;27;19962;-40
2022/11/20 11:35:49;;;;;;;;;;;3.80;99.90;;;;;;5152586;27;19907;-40
2022/11/20 11:38:17;;;;;;;;;;;3.80;99.90;;;;;;5153363;27;19934;-39
2022/11/20 11:40:43;;;;;;;;;;;3.80;99.90;;;;;;5150999;27;19914;-40
2022/11/20 11:46:01;;;;;;;;;;;3.80;99.90;;;;;;5134649;27;19961;-40
2022/11/20 11:48:27;;;;;;;;;;;3.80;99.90;;;;;;5134110;27;19927;-39
2022/11/20 11:50:53;;;;;;;;;;;3.70;99.90;;;;;;5140451;27;19978;-39
2022/11/20 11:53:21;;;;;;;;;;;3.70;99.90;;;;;;5154677;27;19911;-40
2022/11/20 11:56:04;;;;;;;;;;;3.70;99.90;;;;;;5154717;27;19907;-38
2022/11/20 11:58:33;;;;;;;;;;;3.70;99.90;;;;;;5153778;27;19918;-39
2022/11/20 12:01:01;;;;;;;;;;;3.80;99.90;;;;;;5155527;27;19951;-39
2022/11/20 12:03:30;;;;;;;;;;;3.80;99.90;;;;;;5154427;27;19990;-39
2022/11/20 12:06:01;;;;;;;;;;;3.90;99.90;;;;;;5154943;27;20010;-40
2022/11/20 12:08:35;;;;;;;;;;;4.00;99.90;;;;;;5154694;27;19966;-39
2022/11/20 12:11:01;;;;;;;;;;;4.00;99.90;;;;;;5153738;27;19959;-40
2022/11/20 12:13:35;;;;;;;;;;;4.20;99.90;;;;;;5155257;27;19907;-40
2022/11/20 12:16:01;;;;;;;;;;;4.40;99.90;;;;;;5155218;27;19907;-40
2022/11/20 12:18:28;;;;;;;;;;;4.60;99.90;;;;;;5154531;27;19911;-39
2022/11/20 12:21:03;;;;;;;;;;;4.80;99.90;;;;;;5155166;27;19908;-40
2022/11/20 12:23:39;;;;;;;;;;;5.00;99.90;;;;;;5155491;27;19908;-40
2022/11/20 12:26:08;;;;;;;;;;;5.20;99.90;;;;;;5154798;27;19944;-40
2022/11/20 12:29:00;;;;;;;;;;;5.40;99.90;;;;;;5154686;27;19919;-39
2022/11/20 12:31:36;;;;;;;;;;;5.50;99.90;;;;;;5115231;27;20047;-40
2022/11/20 12:34:01;;;;;;;;;;;5.50;99.90;;;;;;5154771;27;19965;-40
2022/11/20 12:36:48;;;;;;;;;;;5.50;99.90;;;;;;5155333;27;20382;-39
2022/11/20 12:39:13;;;;;;;;;;;5.60;99.90;;;;;;5154604;27;19911;-38
2022/11/20 12:45:09;;;;;;;;;;;5.40;99.90;;;;;;5155071;27;19925;-39
2022/11/20 12:47:51;;;;;;;;;;;5.20;99.90;;;;;;5147939;27;19920;-38
2022/11/20 12:50:17;;;;;;;;;;;5.00;99.90;;;;;;5151336;27;19944;-39
2022/11/20 12:52:45;;;;;;;;;;;4.90;99.90;;;;;;5154938;27;19911;-40
2022/11/20 12:55:11;;;;;;;;;;;4.80;99.90;;;;;;5154386;27;19907;-39
2022/11/20 12:57:55;;;;;;;;;;;5.00;99.90;;;;;;5136044;27;19956;-40
2022/11/20 13:00:22;;;;;;;;;;;5.20;99.90;;;;;;5150612;27;19915;-40
2022/11/20 13:02:47;;;;;;;;;;;5.50;99.90;;;;;;5154675;27;20331;-40
2022/11/20 13:05:21;;;;;;;;;;;5.50;99.90;;;;;;5154473;27;19915;-39
2022/11/20 13:07:47;;;;;;;;;;;5.60;99.90;;;;;;5152855;27;19912;-39
2022/11/20 13:10:20;;;;;;;;;;;5.80;99.90;;;;;;5156887;27;19907;-38
2022/11/20 13:12:49;;;;;;;;;;;5.80;99.90;;;;;;5158073;27;20392;-40
2022/11/20 13:15:20;;;;;;;;;;;5.80;99.90;;;;;;5136561;27;19907;-40
2022/11/20 13:17:53;;;;;;;;;;;5.70;99.90;;;;;;5151478;27;20378;-39
2022/11/20 13:20:19;;;;;;;;;;;5.50;99.90;;;;;;5156262;27;19919;-39
2022/11/20 13:22:48;;;;;;;;;;;5.30;99.90;;;;;;5155600;27;19914;-40
2022/11/20 13:25:30;;;;;;;;;;;5.20;99.90;;;;;;5156475;27;20324;-40
2022/11/20 13:27:56;;;;;;;;;;;5.10;99.90;;;;;;5156805;27;19907;-39
2022/11/20 13:30:29;;;;;;;;;;;5.00;99.90;;;;;;5155555;27;19911;-39
2022/11/20 13:32:56;;;;;;;;;;;5.00;99.90;;;;;;5154209;27;19958;-39
2022/11/20 13:35:26;;;;;;;;;;;5.30;99.90;;;;;;5155585;27;19914;-40
2022/11/20 13:38:11;;;;;;;;;;;5.50;99.90;;;;;;5153116;27;19911;-40
2022/11/20 13:40:51;;;;;;;;;;;5.70;99.90;;;;;;5156239;27;19915;-38
2022/11/20 13:43:20;;;;;;;;;;;5.80;99.90;;;;;;5144842;27;19977;-40
2022/11/20 13:45:55;;;;;;;;;;;5.90;99.90;;;;;;5157329;27;19987;-39
2022/11/20 13:48:22;;;;;;;;;;;5.90;99.90;;;;;;5157148;27;19919;-39
2022/11/20 13:50:53;;;;;;;;;;;5.80;99.90;;;;;;5156200;27;19919;-40
2022/11/20 13:53:21;;;;;;;;;;;5.70;99.90;;;;;;5156873;27;20018;-39
2022/11/20 13:55:47;;;;;;;;;;;5.60;99.90;;;;;;5157043;27;20296;-40
2022/11/20 13:58:31;;;;;;;;;;;5.40;99.90;;;;;;5155922;27;19911;-38
2022/11/20 14:01:00;;;;;;;;;;;5.20;99.90;;;;;;5157112;27;20011;-40
2022/11/20 14:03:28;;;;;;;;;;;5.10;99.90;;;;;;5155116;27;19912;-40
2022/11/20 14:05:55;;;;;;;;;;;5.00;99.90;;;;;;5155303;27;20001;-39
2022/11/20 14:08:24;;;;;;;;;;;4.90;99.90;;;;;;5150441;27;20994;-40
2022/11/20 14:10:50;;;;;;;;;;;4.80;99.90;;;;;;5150228;27;20468;-39
2022/11/20 14:13:17;;;;;;;;;;;4.70;99.90;;;;;;5156649;27;20018;-39
2022/11/20 14:15:43;;;;;;;;;;;4.60;99.90;;;;;;5155325;27;19968;-40
2022/11/20 14:18:18;;;;;;;;;;;4.50;99.90;;;;;;5155424;27;19947;-40
2022/11/20 14:20:44;;;;;;;;;;;4.40;99.90;;;;;;5155410;27;20380;-38
2022/11/20 14:23:10;;;;;;;;;;;4.30;99.90;;;;;;5156052;27;19993;-39
2022/11/20 14:25:35;;;;;;;;;;;4.20;99.90;;;;;;5154263;27;19918;-38
2022/11/20 14:28:02;;;;;;;;;;;4.20;99.90;;;;;;5155478;27;20281;-38
2022/11/20 14:30:28;;;;;;;;;;;4.10;99.90;;;;;;5154994;27;19942;-39
2022/11/20 14:32:55;;;;;;;;;;;4.10;99.90;;;;;;5153159;27;19915;-41
2022/11/20 14:35:24;;;;;;;;;;;4.10;99.90;;;;;;5154568;27;19946;-38
2022/11/20 14:37:49;;;;;;;;;;;4.00;99.90;;;;;;5154047;27;19966;-38
2022/11/20 14:40:44;;;;;;;;;;;4.00;99.90;;;;;;5152993;27;19958;-39
2022/11/20 14:43:37;;;;;;;;;;;4.00;99.90;;;;;;5133460;27;19914;-38
2022/11/20 14:46:04;;;;;;;;;;;3.90;99.90;;;;;;5150514;27;20247;-40